createdAt,value
2016-08-01T00:00:37.866Z,68.04
2016-08-01T00:01:37.893Z,67.88
2016-08-01T00:02:37.919Z,67.97
2016-08-01T00:03:37.950Z,67.97
2016-08-01T00:04:37.986Z,67.46
2016-08-01T00:05:38.008Z,66.97
2016-08-01T00:06:38.030Z,67.49
2016-08-01T00:07:38.059Z,67.55
2016-08-01T00:08:38.085Z,67.55
2016-08-01T00:09:38.113Z,67.55
2016-08-01T00:10:38.141Z,67.94
2016-08-01T00:11:38.166Z,67.36
2016-08-01T00:12:38.199Z,67.26
2016-08-01T00:13:38.225Z,67.94
2016-08-01T00:14:38.253Z,67.36
2016-08-01T00:15:38.280Z,67.49
2016-08-01T00:16:38.307Z,67.46
2016-08-01T00:17:38.332Z,67.2
2016-08-01T00:18:38.368Z,66.97
2016-08-01T00:19:38.388Z,66.69
2016-08-01T00:20:38.415Z,66.69
2016-08-01T00:21:38.448Z,67.26
2016-08-01T00:22:38.474Z,67.46
2016-08-01T00:23:38.497Z,66.91
2016-08-01T00:24:38.528Z,67.07
2016-08-01T00:25:38.561Z,66.3
2016-08-01T00:26:38.582Z,66.69
2016-08-01T00:27:38.617Z,66.39
2016-08-01T00:28:38.639Z,66.49
2016-08-01T00:29:38.666Z,66.69
2016-08-01T00:30:38.693Z,66.69
2016-08-01T00:31:38.721Z,66.88
2016-08-01T00:32:38.747Z,66.49
2016-08-01T00:33:38.775Z,66.59
2016-08-01T00:34:38.805Z,66.01
2016-08-01T00:35:38.831Z,66.88
2016-08-01T00:36:38.865Z,66.69
2016-08-01T00:37:38.886Z,66.39
2016-08-01T00:38:38.911Z,65.81
2016-08-01T00:39:38.941Z,66.3
2016-08-01T00:40:38.966Z,66.49
2016-08-01T00:41:38.994Z,66.59
2016-08-01T00:42:39.023Z,66.49
2016-08-01T00:43:39.776Z,66.11
2016-08-01T00:44:39.082Z,66.39
2016-08-01T00:45:39.108Z,66.69
2016-08-01T00:46:39.135Z,66.59
2016-08-01T00:47:39.163Z,66.01
2016-08-01T00:48:39.187Z,66.01
2016-08-01T00:49:39.215Z,65.91
2016-08-01T00:50:39.952Z,66.01
2016-08-01T00:51:39.271Z,65.81
2016-08-01T00:52:39.295Z,65.33
2016-08-01T00:53:39.326Z,65.33
2016-08-01T00:54:39.353Z,65.33
2016-08-01T00:55:39.379Z,65.14
2016-08-01T00:56:39.409Z,65.33
2016-08-01T00:57:39.434Z,65.33
2016-08-01T00:58:39.464Z,65.24
2016-08-01T00:59:39.490Z,65.24
2016-08-01T01:00:39.522Z,65.24
2016-08-01T01:01:39.545Z,65.33
2016-08-01T01:02:39.574Z,64.86
2016-08-01T01:03:39.620Z,65.43
2016-08-01T01:04:39.627Z,65.24
2016-08-01T01:05:39.655Z,64.86
2016-08-01T01:06:39.684Z,64.86
2016-08-01T01:07:39.708Z,65.53
2016-08-01T01:08:40.447Z,65.05
2016-08-01T01:09:39.768Z,64.76
2016-08-01T01:10:39.791Z,65.14
2016-08-01T01:11:39.820Z,65.05
2016-08-01T01:12:39.847Z,65.05
2016-08-01T01:13:39.876Z,64.28
2016-08-01T01:14:39.903Z,64.56
2016-08-01T01:15:39.931Z,64.18
2016-08-01T01:16:39.958Z,64.37
2016-08-01T01:17:40.695Z,64.86
2016-08-01T01:18:40.040Z,64.56
2016-08-01T01:19:40.038Z,65.01
2016-08-01T01:20:40.066Z,64.28
2016-08-01T01:21:40.098Z,64.43
2016-08-01T01:22:40.121Z,64.43
2016-08-01T01:23:40.148Z,64.82
2016-08-01T01:24:40.174Z,64.63
2016-08-01T01:25:40.199Z,64.63
2016-08-01T01:26:40.230Z,65.01
2016-08-01T01:27:40.253Z,64.82
2016-08-01T01:28:40.994Z,64.43
2016-08-01T01:29:40.312Z,65.11
2016-08-01T01:30:40.337Z,64.92
2016-08-01T01:31:41.077Z,65.69
2016-08-01T01:32:40.397Z,65.01
2016-08-01T01:33:40.439Z,64.92
2016-08-01T01:34:40.449Z,64.82
2016-08-01T01:35:40.476Z,64.34
2016-08-01T01:36:40.515Z,64.73
2016-08-01T01:37:40.527Z,64.15
2016-08-01T01:38:40.553Z,64.98
2016-08-01T01:39:40.583Z,64.73
2016-08-01T01:40:40.619Z,64.73
2016-08-01T01:41:40.637Z,64.63
2016-08-01T01:42:40.664Z,64.63
2016-08-01T01:43:40.690Z,64.63
2016-08-01T01:44:40.716Z,64.53
2016-08-01T01:45:40.746Z,64.4
2016-08-01T01:46:40.772Z,64.73
2016-08-01T01:47:40.802Z,64.73
2016-08-01T01:49:40.851Z,64.4
2016-08-01T01:50:40.878Z,64.4
2016-08-01T01:51:40.907Z,64.31
2016-08-01T01:52:40.935Z,64.4
2016-08-01T01:53:40.960Z,64.69
2016-08-01T01:54:40.987Z,64.79
2016-08-01T01:55:41.015Z,64.69
2016-08-01T01:56:41.042Z,64.21
2016-08-01T01:57:41.066Z,64.79
2016-08-01T01:58:41.094Z,64.21
2016-08-01T01:59:41.121Z,64.59
2016-08-01T02:00:41.149Z,64.5
2016-08-01T02:01:41.175Z,63.73
2016-08-01T02:02:41.200Z,63.82
2016-08-01T02:03:41.230Z,64.69
2016-08-01T02:04:41.254Z,64.21
2016-08-01T02:05:41.993Z,63.73
2016-08-01T02:06:41.310Z,63.54
2016-08-01T02:07:41.336Z,63.92
2016-08-01T02:08:41.368Z,63.82
2016-08-01T02:09:41.390Z,63.54
2016-08-01T02:10:41.416Z,63.54
2016-08-01T02:11:41.444Z,63.64
2016-08-01T02:12:41.468Z,64.02
2016-08-01T02:13:41.497Z,63.64
2016-08-01T02:14:41.525Z,63.64
2016-08-01T02:15:41.547Z,64.21
2016-08-01T02:16:41.577Z,64.02
2016-08-01T02:17:41.616Z,64.02
2016-08-01T02:18:41.634Z,63.25
2016-08-01T02:19:41.657Z,64.02
2016-08-01T02:20:41.686Z,63.73
2016-08-01T02:21:41.710Z,63.73
2016-08-01T02:22:41.773Z,63.82
2016-08-01T02:23:41.764Z,63.64
2016-08-01T02:24:41.792Z,62.96
2016-08-01T02:25:41.818Z,63.44
2016-08-01T02:26:41.840Z,63.34
2016-08-01T02:27:41.871Z,62.96
2016-08-01T02:28:41.898Z,63.44
2016-08-01T02:29:42.636Z,64.02
2016-08-01T02:30:41.950Z,64.31
2016-08-01T02:31:41.976Z,64.5
2016-08-01T02:32:42.005Z,64.69
2016-08-01T02:33:42.041Z,64.4
2016-08-01T02:34:42.057Z,63.79
2016-08-01T02:35:42.813Z,64.08
2016-08-01T02:36:42.118Z,63.7
2016-08-01T02:37:42.139Z,64.47
2016-08-01T02:38:42.167Z,64.37
2016-08-01T02:39:42.904Z,63.73
2016-08-01T02:40:42.219Z,63.89
2016-08-01T02:41:42.246Z,64.79
2016-08-01T02:42:42.270Z,63.7
2016-08-01T02:43:42.300Z,63.92
2016-08-01T02:44:42.327Z,63.51
2016-08-01T02:45:42.352Z,63.54
2016-08-01T02:46:42.378Z,63.79
2016-08-01T02:47:42.406Z,64.59
2016-08-01T02:48:42.431Z,63.92
2016-08-01T02:49:42.460Z,63.92
2016-08-01T02:50:43.194Z,63.99
2016-08-01T02:51:42.514Z,64.37
2016-08-01T02:52:42.541Z,64.86
2016-08-01T02:53:42.570Z,64.56
2016-08-01T02:54:42.593Z,64.28
2016-08-01T02:55:42.618Z,64.76
2016-08-01T02:56:43.354Z,64.66
2016-08-01T02:57:42.671Z,64.86
2016-08-01T02:58:42.700Z,64.47
2016-08-01T02:59:42.725Z,65.05
2016-08-01T03:00:42.753Z,65.81
2016-08-01T03:01:42.786Z,65.81
2016-08-01T03:02:42.806Z,66.01
2016-08-01T03:03:42.831Z,65.53
2016-08-01T03:04:42.857Z,65.43
2016-08-01T03:05:42.883Z,65.81
2016-08-01T03:06:42.910Z,66.3
2016-08-01T03:07:42.938Z,65.63
2016-08-01T03:08:42.972Z,65.81
2016-08-01T03:09:42.996Z,65.91
2016-08-01T03:10:43.015Z,66.01
2016-08-01T03:11:43.043Z,65.72
2016-08-01T03:12:43.069Z,65.91
2016-08-01T03:13:43.108Z,66.3
2016-08-01T03:14:43.123Z,65.53
2016-08-01T03:15:43.147Z,65.81
2016-08-01T03:16:43.897Z,66.01
2016-08-01T03:17:43.201Z,65.53
2016-08-01T03:18:43.225Z,65.91
2016-08-01T03:19:43.255Z,65.91
2016-08-01T03:20:43.282Z,65.81
2016-08-01T03:21:43.305Z,65.81
2016-08-01T03:22:43.334Z,66.39
2016-08-01T03:23:43.359Z,65.05
2016-08-01T03:24:43.403Z,65.14
2016-08-01T03:25:43.416Z,65.72
2016-08-01T03:26:43.441Z,66.39
2016-08-01T03:27:43.463Z,66.1
2016-08-01T03:28:43.488Z,65.81
2016-08-01T03:29:43.518Z,65.14
2016-08-01T03:30:43.545Z,65.53
2016-08-01T03:31:43.570Z,65.53
2016-08-01T03:32:43.596Z,65.43
2016-08-01T03:33:43.633Z,64.76
2016-08-01T03:34:43.648Z,65.05
2016-08-01T03:35:43.677Z,65.05
2016-08-01T03:36:43.699Z,65.05
2016-08-01T03:37:43.726Z,64.86
2016-08-01T03:38:43.755Z,64.86
2016-08-01T03:39:43.781Z,65.63
2016-08-01T03:40:43.805Z,64.56
2016-08-01T03:41:43.851Z,64.76
2016-08-01T03:42:43.862Z,64.56
2016-08-01T03:43:43.885Z,64.47
2016-08-01T03:44:43.914Z,65.14
2016-08-01T03:45:43.938Z,64.37
2016-08-01T03:46:44.673Z,64.28
2016-08-01T03:47:43.993Z,64.18
2016-08-01T03:48:44.018Z,64.86
2016-08-01T03:49:44.753Z,65.24
2016-08-01T03:50:44.069Z,64.76
2016-08-01T03:51:44.096Z,65.05
2016-08-01T03:52:44.123Z,65.14
2016-08-01T03:53:44.155Z,65.05
2016-08-01T03:54:44.176Z,64.95
2016-08-01T03:55:44.922Z,64.95
2016-08-01T03:56:44.234Z,65.05
2016-08-01T03:57:44.256Z,64.95
2016-08-01T03:58:44.280Z,65.05
2016-08-01T03:59:44.359Z,65.2
2016-08-01T04:00:44.335Z,65.2
2016-08-01T04:01:44.359Z,65.4
2016-08-01T04:02:44.388Z,65.3
2016-08-01T04:03:44.413Z,65.2
2016-08-01T04:04:44.442Z,65.3
2016-08-01T04:05:45.175Z,65.4
2016-08-01T04:06:44.493Z,65.3
2016-08-01T04:07:44.518Z,64.82
2016-08-01T04:08:44.546Z,64.73
2016-08-01T04:09:44.572Z,64.73
2016-08-01T04:10:44.596Z,64.82
2016-08-01T04:11:44.625Z,64.92
2016-08-01T04:12:44.650Z,64.82
2016-08-01T04:13:44.678Z,64.92
2016-08-01T04:14:44.704Z,64.73
2016-08-01T04:15:44.730Z,65.01
2016-08-01T04:16:44.754Z,65.01
2016-08-01T04:17:44.783Z,64.73
2016-08-01T04:18:44.809Z,64.43
2016-08-01T04:19:44.831Z,64.92
2016-08-01T04:20:44.867Z,65.01
2016-08-01T04:21:44.888Z,64.82
2016-08-01T04:22:45.624Z,65.2
2016-08-01T04:23:44.937Z,65.4
2016-08-01T04:24:44.963Z,65.3
2016-08-01T04:25:44.989Z,65.01
2016-08-01T04:26:45.019Z,65.01
2016-08-01T04:27:45.048Z,65.5
2016-08-01T04:28:45.080Z,65.59
2016-08-01T04:29:45.810Z,65.3
2016-08-01T04:30:45.837Z,65.11
2016-08-01T04:31:45.148Z,65.59
2016-08-01T04:32:45.175Z,65.2
2016-08-01T04:33:45.207Z,65.2
2016-08-01T04:34:45.939Z,65.11
2016-08-01T04:35:45.256Z,65.4
2016-08-01T04:36:45.297Z,65.88
2016-08-01T04:37:45.309Z,65.78
2016-08-01T04:38:45.335Z,65.69
2016-08-01T04:39:45.358Z,65.88
2016-08-01T04:40:46.099Z,65.59
2016-08-01T04:41:45.410Z,65.78
2016-08-01T04:42:45.436Z,65.59
2016-08-01T04:43:45.465Z,65.59
2016-08-01T04:44:45.491Z,65.78
2016-08-01T04:45:45.524Z,65.4
2016-08-01T04:46:45.548Z,65.2
2016-08-01T04:47:45.568Z,65.11
2016-08-01T04:48:45.594Z,65.69
2016-08-01T04:49:45.621Z,65.11
2016-08-01T04:50:45.647Z,64.92
2016-08-01T04:51:45.683Z,64.82
2016-08-01T04:52:46.406Z,64.63
2016-08-01T04:53:45.743Z,64.82
2016-08-01T04:54:45.750Z,64.92
2016-08-01T04:55:45.779Z,64.92
2016-08-01T04:56:45.804Z,65.2
2016-08-01T04:57:45.827Z,64.63
2016-08-01T04:58:45.859Z,64.53
2016-08-01T04:59:45.934Z,65.2
2016-08-01T05:00:46.615Z,64.92
2016-08-01T05:01:45.941Z,64.63
2016-08-01T05:02:45.960Z,64.92
2016-08-01T05:03:45.982Z,64.82
2016-08-01T05:04:46.011Z,64.73
2016-08-01T05:05:46.747Z,65.11
2016-08-01T05:06:46.063Z,64.73
2016-08-01T05:07:46.088Z,64.92
2016-08-01T05:08:46.127Z,65.4
2016-08-01T05:09:46.142Z,64.92
2016-08-01T05:10:46.174Z,64.63
2016-08-01T05:11:46.197Z,64.82
2016-08-01T05:12:46.221Z,65.4
2016-08-01T05:13:46.247Z,64.92
2016-08-01T05:14:46.272Z,65.4
2016-08-01T05:15:46.301Z,64.92
2016-08-01T05:16:46.327Z,64.92
2016-08-01T05:17:46.353Z,64.43
2016-08-01T05:18:46.381Z,64.92
2016-08-01T05:19:46.406Z,64.34
2016-08-01T05:20:46.432Z,64.43
2016-08-01T05:21:46.456Z,64.82
2016-08-01T05:22:46.483Z,64.82
2016-08-01T05:23:46.511Z,64.25
2016-08-01T05:24:46.536Z,65.01
2016-08-01T05:25:46.562Z,64.86
2016-08-01T05:26:46.589Z,64.95
2016-08-01T05:27:46.615Z,64.76
2016-08-01T05:28:46.642Z,64.95
2016-08-01T05:29:47.375Z,64.95
2016-08-01T05:30:46.693Z,65.05
2016-08-01T05:31:46.723Z,65.24
2016-08-01T05:32:46.749Z,64.28
2016-08-01T05:33:47.482Z,64.76
2016-08-01T05:34:47.506Z,64.76
2016-08-01T05:35:46.826Z,64.37
2016-08-01T05:36:47.563Z,64.37
2016-08-01T05:37:46.876Z,63.7
2016-08-01T05:38:46.907Z,64.18
2016-08-01T05:39:46.940Z,64.37
2016-08-01T05:40:46.960Z,63.7
2016-08-01T05:41:46.985Z,63.79
2016-08-01T05:42:47.011Z,63.79
2016-08-01T05:43:47.038Z,63.6
2016-08-01T05:44:47.065Z,63.6
2016-08-01T05:45:47.808Z,64.08
2016-08-01T05:46:47.116Z,63.41
2016-08-01T05:47:47.159Z,63.22
2016-08-01T05:48:47.173Z,63.79
2016-08-01T05:49:47.195Z,63.51
2016-08-01T05:50:47.238Z,64.18
2016-08-01T05:51:47.252Z,63.22
2016-08-01T05:52:47.276Z,63.51
2016-08-01T05:53:47.306Z,63.31
2016-08-01T05:54:47.330Z,64.08
2016-08-01T05:55:47.379Z,63.64
2016-08-01T05:56:47.387Z,63.51
2016-08-01T05:57:47.412Z,63.6
2016-08-01T05:58:47.438Z,63.64
2016-08-01T05:59:48.239Z,62.57
2016-08-01T06:00:47.492Z,63.15
2016-08-01T06:01:47.516Z,63.82
2016-08-01T06:02:48.255Z,63.82
2016-08-01T06:03:47.675Z,64.02
2016-08-01T06:04:47.602Z,64.31
2016-08-01T06:05:47.627Z,63.54
2016-08-01T06:06:47.655Z,63.64
2016-08-01T06:07:47.678Z,63.25
2016-08-01T06:08:47.705Z,63.64
2016-08-01T06:09:47.734Z,63.15
2016-08-01T06:10:47.758Z,63.15
2016-08-01T06:11:47.809Z,63.15
2016-08-01T06:12:47.820Z,62.6
2016-08-01T06:13:47.838Z,62.99
2016-08-01T06:14:47.870Z,62.96
2016-08-01T06:15:47.895Z,63.38
2016-08-01T06:16:47.919Z,63.18
2016-08-01T06:17:47.950Z,62.8
2016-08-01T06:18:47.976Z,62.99
2016-08-01T06:19:48.732Z,62.32
2016-08-01T06:20:48.037Z,62.12
2016-08-01T06:21:48.054Z,62.7
2016-08-01T06:22:48.082Z,61.93
2016-08-01T06:23:48.110Z,62.12
2016-08-01T06:24:48.137Z,61.74
2016-08-01T06:25:48.164Z,61.93
2016-08-01T06:26:48.190Z,61.07
2016-08-01T06:27:48.928Z,60.49
2016-08-01T06:28:48.253Z,60.77
2016-08-01T06:29:48.982Z,62.8
2016-08-01T06:30:48.301Z,62.8
2016-08-01T06:31:48.326Z,61.74
2016-08-01T06:32:48.355Z,62.41
2016-08-01T06:33:49.090Z,62.6
2016-08-01T06:34:48.409Z,61.55
2016-08-01T06:35:48.437Z,61.83
2016-08-01T06:36:48.469Z,62.6
2016-08-01T06:37:48.491Z,62.99
2016-08-01T06:38:48.516Z,63.38
2016-08-01T06:39:49.258Z,63.21
2016-08-01T06:40:48.571Z,63.02
2016-08-01T06:41:48.595Z,62.63
2016-08-01T06:42:48.626Z,61.1
2016-08-01T06:43:48.653Z,62.06
2016-08-01T06:44:48.686Z,64.37
2016-08-01T06:45:48.704Z,63.21
2016-08-01T06:46:48.734Z,64.95
2016-08-01T06:47:48.763Z,64.86
2016-08-01T06:48:48.790Z,63.7
2016-08-01T06:49:48.819Z,62.63
2016-08-01T06:50:48.844Z,59.55
2016-08-01T06:51:48.895Z,58.11
2016-08-01T06:52:48.902Z,58.69
2016-08-01T06:53:48.928Z,58.97
2016-08-01T06:54:49.663Z,57.92
2016-08-01T06:55:48.983Z,57.14
2016-08-01T06:56:49.009Z,57.62
2016-08-01T06:57:49.044Z,58.11
2016-08-01T06:58:49.061Z,59.07
2016-08-01T06:59:49.110Z,59.27
2016-08-01T07:00:49.121Z,59.94
2016-08-01T07:01:49.146Z,60.8
2016-08-01T07:02:49.176Z,59.84
2016-08-01T07:03:49.203Z,59.27
2016-08-01T07:05:49.256Z,58.04
2016-08-01T07:06:49.993Z,57.82
2016-08-01T07:07:49.327Z,59
2016-08-01T07:08:49.342Z,58.52
2016-08-01T07:09:49.368Z,57.85
2016-08-01T07:10:49.395Z,55.73
2016-08-01T07:11:49.423Z,56.4
2016-08-01T07:12:49.450Z,56.79
2016-08-01T07:13:49.480Z,58.04
2016-08-01T07:14:50.218Z,57.97
2016-08-01T07:15:49.544Z,59.68
2016-08-01T07:16:49.566Z,61.06
2016-08-01T07:17:50.297Z,62.51
2016-08-01T07:18:49.618Z,62.99
2016-08-01T07:20:49.678Z,60
2016-08-01T07:21:49.707Z,60.19
2016-08-01T07:22:49.729Z,61.06
2016-08-01T07:23:49.762Z,61.06
2016-08-01T07:24:49.797Z,60.03
2016-08-01T07:25:49.817Z,58.58
2016-08-01T07:26:49.843Z,58
2016-08-01T07:27:49.871Z,57.14
2016-08-01T07:28:49.898Z,56.26
2016-08-01T07:29:49.928Z,56.46
2016-08-01T07:30:49.954Z,55.88
2016-08-01T07:31:49.983Z,57.81
2016-08-01T07:32:50.013Z,55.78
2016-08-01T07:33:50.038Z,56.46
2016-08-01T07:34:50.066Z,54.17
2016-08-01T07:35:50.096Z,52.43
2016-08-01T07:36:50.123Z,52.33
2016-08-01T07:37:50.151Z,51.27
2016-08-01T07:38:50.182Z,50.21
2016-08-01T07:39:50.209Z,50.57
2016-08-01T07:40:50.238Z,50.89
2016-08-01T07:41:50.268Z,51.17
2016-08-01T07:42:50.294Z,51.75
2016-08-01T07:43:50.323Z,51.56
2016-08-01T07:44:50.357Z,51.95
2016-08-01T07:45:50.430Z,50.11
2016-08-01T07:46:50.403Z,49.34
2016-08-01T07:47:50.435Z,50.11
2016-08-01T07:48:50.462Z,48.47
2016-08-01T07:49:50.516Z,48.66
2016-08-01T07:50:50.522Z,47.7
2016-08-01T07:51:50.547Z,49.82
2016-08-01T07:52:50.575Z,49.82
2016-08-01T07:53:50.604Z,49.53
2016-08-01T07:54:51.342Z,48.76
2016-08-01T07:55:50.664Z,48.66
2016-08-01T07:56:50.691Z,49.44
2016-08-01T07:57:50.732Z,48.18
2016-08-01T07:58:50.748Z,49.44
2016-08-01T07:59:50.826Z,48.39
2016-08-01T08:00:50.806Z,48.01
2016-08-01T08:01:51.540Z,47.33
2016-08-01T08:02:50.861Z,47.81
2016-08-01T08:03:50.888Z,46.75
2016-08-01T08:04:50.938Z,47.91
2016-08-01T08:05:51.657Z,47.14
2016-08-01T08:06:50.975Z,46.27
2016-08-01T08:07:51.002Z,45.4
2016-08-01T08:08:51.032Z,45.59
2016-08-01T08:09:51.060Z,45.98
2016-08-01T08:10:51.088Z,46.27
2016-08-01T08:11:51.830Z,45.89
2016-08-01T08:12:51.155Z,46.17
2016-08-01T08:13:51.178Z,46.27
2016-08-01T08:14:51.203Z,45.89
2016-08-01T08:15:51.239Z,46.56
2016-08-01T08:16:51.262Z,45.23
2016-08-01T08:17:52.001Z,44.46
2016-08-01T08:18:51.320Z,46.17
2016-08-01T08:19:51.350Z,46.56
2016-08-01T08:20:51.379Z,45.52
2016-08-01T08:21:51.404Z,44.84
2016-08-01T08:22:51.434Z,45.14
2016-08-01T08:23:51.464Z,45.52
2016-08-01T08:24:51.491Z,45.62
2016-08-01T08:25:51.520Z,45.14
2016-08-01T08:26:51.551Z,45.04
2016-08-01T08:27:51.580Z,44.75
2016-08-01T08:28:51.606Z,45.33
2016-08-01T08:29:51.634Z,46
2016-08-01T08:30:51.666Z,45.62
2016-08-01T08:31:52.409Z,47.45
2016-08-01T08:32:51.724Z,46.78
2016-08-01T08:33:51.752Z,44.36
2016-08-01T08:34:52.491Z,43.49
2016-08-01T08:35:51.811Z,42.72
2016-08-01T08:36:51.837Z,44.07
2016-08-01T08:37:51.876Z,44.07
2016-08-01T08:38:51.895Z,45.04
2016-08-01T08:39:51.930Z,45.52
2016-08-01T08:40:51.952Z,44.65
2016-08-01T08:41:51.985Z,45.62
2016-08-01T08:42:52.010Z,45.14
2016-08-01T08:43:52.038Z,43.1
2016-08-01T08:44:52.081Z,43.68
2016-08-01T08:45:52.105Z,42.82
2016-08-01T08:46:52.130Z,44.46
2016-08-01T08:47:52.155Z,44.36
2016-08-01T08:48:52.185Z,44.57
2016-08-01T08:49:52.217Z,43.32
2016-08-01T08:50:52.242Z,43.71
2016-08-01T08:51:52.271Z,43.13
2016-08-01T08:52:52.302Z,42.74
2016-08-01T08:53:52.333Z,42.45
2016-08-01T08:54:52.361Z,41.67
2016-08-01T08:55:52.389Z,41.97
2016-08-01T08:56:52.421Z,42.16
2016-08-01T08:57:52.446Z,42.16
2016-08-01T08:58:52.479Z,41.5
2016-08-01T08:59:52.506Z,39.09
2016-08-01T09:00:52.538Z,37.92
2016-08-01T09:01:52.575Z,40.53
2016-08-01T09:02:52.601Z,38.5
2016-08-01T09:03:52.626Z,38.6
2016-08-01T09:04:53.361Z,39.09
2016-08-01T09:05:52.684Z,40.71
2016-08-01T09:06:52.717Z,39.74
2016-08-01T09:07:52.745Z,40.92
2016-08-01T09:08:52.770Z,41.11
2016-08-01T09:09:52.801Z,41.02
2016-08-01T09:10:52.837Z,40.83
2016-08-01T09:11:52.860Z,41.21
2016-08-01T09:12:52.895Z,41.6
2016-08-01T09:13:52.918Z,39.57
2016-08-01T09:14:53.660Z,40.25
2016-08-01T09:15:52.982Z,40.73
2016-08-01T09:16:53.004Z,40.63
2016-08-01T09:17:53.047Z,40.73
2016-08-01T09:18:53.067Z,40.26
2016-08-01T09:19:53.804Z,40.75
2016-08-01T09:20:53.125Z,41.04
2016-08-01T09:21:53.159Z,41.14
2016-08-01T09:22:53.183Z,41.42
2016-08-01T09:23:53.212Z,41.25
2016-08-01T09:24:53.239Z,40.38
2016-08-01T09:25:53.274Z,42.13
2016-08-01T09:26:53.302Z,43.29
2016-08-01T09:27:54.053Z,41.45
2016-08-01T09:28:54.078Z,40.38
2016-08-01T09:29:53.392Z,39.53
2016-08-01T09:30:53.420Z,40.69
2016-08-01T09:31:53.451Z,38.46
2016-08-01T09:32:53.483Z,36.43
2016-08-01T09:33:53.515Z,36.82
2016-08-01T09:34:53.548Z,38.76
2016-08-01T09:35:53.573Z,44.57
2016-08-01T09:36:53.612Z,46.99
2016-08-01T09:37:53.632Z,49.32
2016-08-01T09:38:53.664Z,48.06
2016-08-01T09:39:53.695Z,51.25
2016-08-01T09:40:54.434Z,51.64
2016-08-01T09:41:53.757Z,52.03
2016-08-01T09:42:53.791Z,51.84
2016-08-01T09:43:53.817Z,52.03
2016-08-01T09:44:53.845Z,52.12
2016-08-01T09:45:53.879Z,52.71
2016-08-01T09:46:53.903Z,52.12
2016-08-01T09:47:53.935Z,49.99
2016-08-01T09:48:53.966Z,51.54
2016-08-01T09:49:53.997Z,43.31
2016-08-01T09:50:54.739Z,42.63
2016-08-01T09:51:54.074Z,46.22
2016-08-01T09:52:54.088Z,46.51
2016-08-01T09:53:54.117Z,46.33
2016-08-01T09:54:54.155Z,42.85
2016-08-01T09:55:54.182Z,42.85
2016-08-01T09:56:54.209Z,39.36
2016-08-01T09:57:54.240Z,37.61
2016-08-01T09:58:54.279Z,38.68
2016-08-01T09:59:54.352Z,39.18
2016-08-01T10:00:54.332Z,40.15
2016-08-01T10:01:54.367Z,39.18
2016-08-01T10:02:54.396Z,40.25
2016-08-01T10:03:54.424Z,39.47
2016-08-01T10:04:54.453Z,40.54
2016-08-01T10:05:54.486Z,46.92
2016-08-01T10:06:54.517Z,47.3
2016-08-01T10:07:55.256Z,39.55
2016-08-01T10:08:54.575Z,39.06
2016-08-01T10:09:54.606Z,38.39
2016-08-01T10:10:54.639Z,39.45
2016-08-01T10:11:54.670Z,45.85
2016-08-01T10:12:54.701Z,45.56
2016-08-01T10:13:54.727Z,46.24
2016-08-01T10:14:54.772Z,40.42
2016-08-01T10:15:54.796Z,39.47
2016-08-01T10:16:54.823Z,38
2016-08-01T10:17:54.853Z,37.71
2016-08-01T10:18:54.880Z,38.4
2016-08-01T10:19:54.915Z,44.71
2016-08-01T10:20:55.654Z,37.53
2016-08-01T10:21:54.975Z,37.43
2016-08-01T10:22:55.007Z,42.09
2016-08-01T10:23:55.045Z,38.4
2016-08-01T10:24:55.072Z,36.46
2016-08-01T10:25:55.095Z,37.34
2016-08-01T10:26:55.127Z,38.02
2016-08-01T10:27:55.159Z,40.15
2016-08-01T10:28:55.193Z,38.7
2016-08-01T10:29:55.221Z,46.94
2016-08-01T10:30:55.250Z,45.48
2016-08-01T10:31:55.300Z,38.4
2016-08-01T10:32:55.322Z,41.99
2016-08-01T10:33:55.348Z,41.02
2016-08-01T10:34:55.383Z,40.08
2016-08-01T10:35:55.405Z,45.1
2016-08-01T10:36:55.436Z,43.27
2016-08-01T10:37:55.466Z,38.79
2016-08-01T10:38:55.497Z,39.47
2016-08-01T10:39:55.530Z,39.47
2016-08-01T10:40:55.562Z,37.15
2016-08-01T10:41:55.590Z,36.18
2016-08-01T10:42:55.619Z,37.53
2016-08-01T10:43:55.651Z,37.15
2016-08-01T10:44:55.684Z,38.31
2016-08-01T10:45:55.713Z,38.5
2016-08-01T10:46:55.745Z,37.34
2016-08-01T10:47:55.794Z,36.66
2016-08-01T10:48:55.806Z,37.23
2016-08-01T10:49:55.837Z,40.71
2016-08-01T10:50:55.867Z,42.65
2016-08-01T10:51:55.896Z,40.42
2016-08-01T10:52:55.932Z,38.96
2016-08-01T10:53:55.956Z,37.71
2016-08-01T10:54:55.988Z,36.54
2016-08-01T10:55:56.024Z,37.32
2016-08-01T10:56:56.048Z,36.64
2016-08-01T10:57:56.081Z,36.74
2016-08-01T10:58:56.110Z,38.29
2016-08-01T10:59:56.141Z,39.26
2016-08-01T11:00:56.170Z,38.48
2016-08-01T11:01:56.201Z,36.35
2016-08-01T11:02:56.229Z,37.13
2016-08-01T11:03:56.261Z,36.25
2016-08-01T11:04:57.002Z,37.81
2016-08-01T11:05:56.330Z,41.1
2016-08-01T11:06:56.349Z,37.41
2016-08-01T11:07:56.382Z,42.65
2016-08-01T11:08:57.125Z,38.39
2016-08-01T11:09:57.151Z,37.71
2016-08-01T11:10:57.185Z,38.19
2016-08-01T11:11:56.506Z,38.87
2016-08-01T11:12:56.536Z,38.48
2016-08-01T11:13:56.565Z,37.41
2016-08-01T11:14:56.596Z,37.61
2016-08-01T11:15:56.631Z,36.25
2016-08-01T11:16:56.657Z,37.03
2016-08-01T11:17:56.687Z,36.54
2016-08-01T11:18:56.716Z,33.92
2016-08-01T11:19:56.746Z,33.73
2016-08-01T11:20:56.776Z,34.12
2016-08-01T11:21:57.516Z,35.77
2016-08-01T11:22:56.838Z,36.16
2016-08-01T11:23:56.868Z,36.25
2016-08-01T11:24:56.898Z,37.41
2016-08-01T11:25:56.931Z,38.39
2016-08-01T11:26:56.961Z,38.29
2016-08-01T11:27:56.989Z,36.16
2016-08-01T11:28:57.031Z,36.44
2016-08-01T11:29:57.056Z,34.22
2016-08-01T11:30:57.083Z,38.09
2016-08-01T11:31:57.111Z,38.39
2016-08-01T11:32:57.143Z,35.77
2016-08-01T11:33:57.183Z,37.71
2016-08-01T11:34:57.200Z,35.57
2016-08-01T11:35:57.232Z,34.89
2016-08-01T11:36:57.262Z,34.89
2016-08-01T11:37:58.003Z,35.48
2016-08-01T11:38:57.322Z,35.28
2016-08-01T11:39:57.355Z,35.96
2016-08-01T11:40:57.389Z,36.44
2016-08-01T11:41:57.417Z,37.81
2016-08-01T11:42:57.446Z,41.39
2016-08-01T11:43:57.477Z,43.82
2016-08-01T11:44:57.504Z,43.13
2016-08-01T11:45:57.555Z,38.46
2016-08-01T11:46:57.567Z,37.88
2016-08-01T11:47:58.309Z,37.13
2016-08-01T11:48:57.626Z,36.93
2016-08-01T11:49:57.660Z,37.13
2016-08-01T11:50:57.708Z,36.64
2016-08-01T11:51:57.722Z,36.35
2016-08-01T11:52:57.749Z,35.38
2016-08-01T11:53:57.783Z,36.16
2016-08-01T11:54:57.810Z,36.76
2016-08-01T11:55:57.842Z,35.88
2016-08-01T11:56:57.871Z,32.97
2016-08-01T11:57:57.901Z,32.59
2016-08-01T11:58:57.932Z,34.62
2016-08-01T11:59:57.962Z,34.91
2016-08-01T12:00:57.993Z,33.84
2016-08-01T12:01:58.023Z,33.84
2016-08-01T12:02:58.061Z,37.24
2016-08-01T12:03:58.084Z,34.62
2016-08-01T12:04:58.115Z,33.56
2016-08-01T12:05:58.165Z,34.14
2016-08-01T12:06:58.889Z,33.94
2016-08-01T12:07:58.213Z,36.36
2016-08-01T12:08:58.240Z,41.51
2016-08-01T12:09:58.271Z,38.7
2016-08-01T12:10:58.298Z,36.58
2016-08-01T12:11:58.332Z,36.27
2016-08-01T12:12:58.362Z,35.22
2016-08-01T12:13:58.393Z,34.83
2016-08-01T12:14:59.132Z,35.8
2016-08-01T12:15:58.455Z,35.51
2016-08-01T12:16:58.486Z,36.87
2016-08-01T12:17:58.517Z,38.42
2016-08-01T12:18:58.545Z,45.72
2016-08-01T12:19:58.588Z,47.16
2016-08-01T12:21:58.641Z,42.5
2016-08-01T12:22:58.670Z,39.98
2016-08-01T12:23:58.700Z,37.84
2016-08-01T12:24:58.733Z,38.34
2016-08-01T12:25:58.763Z,37.18
2016-08-01T12:26:59.505Z,36.02
2016-08-01T12:27:58.823Z,36.02
2016-08-01T12:28:58.857Z,35.72
2016-08-01T12:29:58.886Z,35.82
2016-08-01T12:30:58.917Z,36.6
2016-08-01T12:31:58.951Z,33.2
2016-08-01T12:32:58.980Z,33.98
2016-08-01T12:33:59.011Z,34.66
2016-08-01T12:34:59.043Z,35.05
2016-08-01T12:36:59.105Z,34.17
2016-08-01T12:37:59.134Z,32.62
2016-08-01T12:38:59.876Z,32.81
2016-08-01T12:39:59.197Z,33.39
2016-08-01T12:40:59.228Z,33.39
2016-08-01T12:41:59.976Z,32.13
2016-08-01T12:42:59.290Z,33.88
2016-08-01T12:43:59.321Z,35.24
2016-08-01T12:44:59.357Z,33.88
2016-08-01T12:45:59.384Z,37.47
2016-08-01T12:46:59.416Z,36.4
2016-08-01T12:47:59.448Z,39.03
2016-08-01T12:48:59.479Z,45.62
2016-08-01T12:49:59.512Z,44.75
2016-08-01T12:50:59.541Z,37.86
2016-08-01T12:51:59.571Z,37.18
2016-08-01T12:53:00.312Z,40.19
2016-08-01T12:53:59.636Z,41.84
2016-08-01T12:54:59.665Z,43.2
2016-08-01T12:55:59.696Z,38.25
2016-08-01T12:56:59.727Z,34.95
2016-08-01T12:57:59.758Z,32.23
2016-08-01T12:58:59.790Z,32.52
2016-08-01T12:59:59.822Z,32.71
2016-08-01T13:00:59.852Z,32.62